Time;durP1;ratioP1;P1;durP2;ratioP2;P2;SDS_P1;SDS_P2;PMS_P1;PMS_P2;Temp;Humidity;BMP_temperature;BMP_pressure;BME280_temperature;BME280_humidity;BME280_pressure;Samples;Min_cycle;Max_cycle;Signal;HPM_P1;HPM_P2
2022/10/20 00:00:49;;;;;;;15.90;14.60;;;16.30;57.00;;;;;;20510;6845;337646;-86
2022/10/20 00:03:15;;;;;;;14.40;13.40;;;16.30;56.40;;;;;;20497;6845;277350;-86
2022/10/20 00:05:41;;;;;;;15.23;13.93;;;16.30;56.20;;;;;;20519;6845;278245;-86
2022/10/20 00:08:07;;;;;;;13.30;12.20;;;16.00;56.20;;;;;;20732;6845;118589;-86
2022/10/20 00:10:33;;;;;;;14.80;13.60;;;16.00;56.40;;;;;;20510;6845;341077;-86
2022/10/20 00:12:58;;;;;;;13.00;11.83;;;15.90;56.50;;;;;;20706;6845;118585;-86
2022/10/20 00:15:24;;;;;;;15.60;14.48;;;15.60;56.80;;;;;;20516;6845;278684;-86
2022/10/20 00:17:49;;;;;;;17.17;15.57;;;15.60;57.50;;;;;;20515;6845;308770;-86
2022/10/20 00:20:15;;;;;;;14.40;13.10;;;15.70;57.50;;;;;;20728;6845;124359;-86
2022/10/20 00:22:40;;;;;;;15.02;13.82;;;15.60;57.60;;;;;;20469;6845;332926;-87
2022/10/20 00:25:06;;;;;;;14.70;13.47;;;15.50;57.80;;;;;;20489;6845;306339;-86
2022/10/20 00:27:32;;;;;;;13.13;12.03;;;15.70;57.60;;;;;;20735;6845;117637;-86
2022/10/20 00:29:57;;;;;;;15.03;13.80;;;15.50;57.80;;;;;;20530;6843;307589;-86
2022/10/20 00:32:23;;;;;;;14.93;13.83;;;15.50;57.60;;;;;;20529;6845;289901;-86
2022/10/20 00:34:49;;;;;;;15.90;14.50;;;15.70;56.90;;;;;;20524;6845;320450;-86
2022/10/20 00:37:15;;;;;;;15.57;14.30;;;15.80;56.40;;;;;;20508;6845;306767;-86
2022/10/20 00:39:41;;;;;;;13.83;12.73;;;15.80;56.30;;;;;;20738;6845;121215;-85
2022/10/20 00:42:06;;;;;;;16.03;14.80;;;15.60;56.60;;;;;;20534;6845;306762;-86
2022/10/20 00:44:55;;;;;;;12.50;11.60;;;15.50;57.30;;;;;;20773;6845;117501;-86
2022/10/20 00:47:36;;;;;;;13.60;12.30;;;15.30;57.50;;;;;;20790;6845;117627;-86
2022/10/20 00:50:06;;;;;;;14.40;13.40;;;14.90;58.20;;;;;;20597;6845;337581;-86
2022/10/20 00:52:32;;;;;;;14.83;12.77;;;15.00;58.80;;;;;;20747;6845;119257;-86
2022/10/20 00:54:57;;;;;;;13.60;12.27;;;14.90;58.60;;;;;;20730;6845;119026;-87
2022/10/20 00:57:23;;;;;;;14.43;12.97;;;14.70;58.90;;;;;;20752;6845;118895;-86
2022/10/20 00:59:48;;;;;;;16.80;15.32;;;14.50;59.40;;;;;;20513;6845;308426;-86
2022/10/20 01:02:14;;;;;;;15.13;13.93;;;14.70;60.10;;;;;;20741;6845;117621;-86
2022/10/20 01:04:40;;;;;;;14.00;12.73;;;14.60;59.80;;;;;;20726;6845;117522;-86
2022/10/20 01:07:05;;;;;;;17.90;16.30;;;14.50;60.00;;;;;;20488;6845;292213;-86
2022/10/20 01:09:31;;;;;;;14.82;13.62;;;14.60;60.00;;;;;;20725;6845;117900;-86
2022/10/20 01:12:00;;;;;;;16.97;15.53;;;14.60;59.80;;;;;;20509;6845;308026;-86
2022/10/20 01:14:48;;;;;;;18.13;16.60;;;14.80;59.70;;;;;;20371;6845;310147;-86
2022/10/20 01:17:26;;;;;;;14.53;13.40;;;15.10;59.50;;;;;;20711;6845;118367;-86
2022/10/20 01:20:31;;;;;;;14.50;13.40;;;14.90;59.40;;;;;;19662;7201;118352;-86
2022/10/20 01:23:17;;;;;;;16.95;15.60;;;14.70;60.00;;;;;;19491;6845;307783;-87
2022/10/20 01:25:52;;;;;;;16.63;15.33;;;14.90;60.10;;;;;;20192;6866;279408;-86
2022/10/20 01:28:21;;;;;;;16.40;15.13;;;15.20;58.70;;;;;;20498;6845;311337;-86
2022/10/20 01:30:47;;;;;;;13.70;12.60;;;15.40;58.00;;;;;;20724;6845;117631;-87
2022/10/20 01:33:15;;;;;;;13.05;12.10;;;15.20;58.10;;;;;;20691;6845;118914;-86
2022/10/20 01:35:51;;;;;;;13.30;12.23;;;14.90;58.70;;;;;;20765;6845;117594;-87
2022/10/20 01:38:19;;;;;;;12.70;11.60;;;14.60;59.40;;;;;;20682;6845;117781;-86
2022/10/20 01:40:55;;;;;;;14.00;12.37;;;14.30;59.90;;;;;;20776;6843;116616;-86
2022/10/20 01:43:24;;;;;;;15.77;14.37;;;14.20;60.30;;;;;;20501;6845;282487;-86
2022/10/20 01:45:50;;;;;;;15.65;14.23;;;14.40;60.60;;;;;;20509;6845;307737;-87
2022/10/20 01:48:15;;;;;;;14.83;13.27;;;14.80;59.50;;;;;;20723;6845;118019;-86
2022/10/20 01:50:41;;;;;;;13.47;12.30;;;14.80;59.30;;;;;;20724;6845;117932;-87
2022/10/20 01:53:07;;;;;;;13.47;11.60;;;14.50;59.80;;;;;;20709;6845;118632;-87
2022/10/20 01:55:33;;;;;;;15.83;14.40;;;14.40;60.30;;;;;;20505;6845;313532;-87
2022/10/20 01:58:19;;;;;;;16.13;14.73;;;14.60;60.30;;;;;;20506;6845;278749;-87
2022/10/20 02:00:44;;;;;;;15.55;14.13;;;14.90;59.40;;;;;;20507;6845;331584;-87
2022/10/20 02:03:30;;;;;;;15.05;13.75;;;15.30;58.80;;;;;;20504;6845;277768;-90
2022/10/20 02:06:15;;;;;;;13.23;12.13;;;15.40;58.30;;;;;;20722;6845;117604;-87
2022/10/20 02:08:45;;;;;;;16.40;14.77;;;15.20;58.40;;;;;;20525;6845;277713;-87
2022/10/20 02:11:11;;;;;;;17.62;15.85;;;15.20;58.00;;;;;;20498;6845;277822;-88
2022/10/20 02:13:37;;;;;;;14.73;13.33;;;15.40;58.00;;;;;;20709;6845;118179;-87
2022/10/20 02:16:02;;;;;;;15.13;13.93;;;15.20;58.20;;;;;;20516;6845;293717;-87
2022/10/20 02:18:31;;;;;;;13.37;12.17;;;15.20;58.90;;;;;;20714;6845;117714;-87
2022/10/20 02:20:56;;;;;;;16.63;15.10;;;15.10;59.00;;;;;;20497;6845;277882;-88
2022/10/20 02:23:22;;;;;;;14.20;12.83;;;15.20;59.70;;;;;;20684;6845;118744;-87
2022/10/20 02:25:47;;;;;;;15.00;13.88;;;15.10;59.60;;;;;;20492;6845;307290;-87
2022/10/20 02:28:13;;;;;;;14.13;12.93;;;15.20;60.10;;;;;;20707;6845;118548;-88
2022/10/20 02:30:39;;;;;;;15.55;14.15;;;15.10;60.00;;;;;;20498;6845;339919;-87
2022/10/20 02:33:04;;;;;;;15.05;13.55;;;15.20;60.30;;;;;;20697;6845;118811;-87
2022/10/20 02:35:31;;;;;;;14.13;12.77;;;15.20;60.00;;;;;;20716;6845;118170;-87
2022/10/20 02:37:57;;;;;;;14.57;13.13;;;14.90;60.30;;;;;;20715;6845;117875;-87
2022/10/20 02:40:22;;;;;;;15.90;14.50;;;14.80;60.80;;;;;;20505;6845;294627;-87
2022/10/20 02:42:48;;;;;;;16.60;15.00;;;14.90;60.90;;;;;;20512;6845;278241;-87
2022/10/20 02:45:13;;;;;;;17.08;15.55;;;15.30;60.30;;;;;;20491;6845;279914;-86
2022/10/20 02:47:39;;;;;;;15.63;14.32;;;15.60;59.30;;;;;;20506;6845;306635;-87
2022/10/20 02:50:06;;;;;;;16.40;14.87;;;15.80;58.60;;;;;;20497;6845;306761;-87
2022/10/20 02:52:32;;;;;;;16.27;14.90;;;16.00;57.90;;;;;;20517;6843;306840;-87
2022/10/20 02:54:57;;;;;;;12.82;11.75;;;16.10;57.50;;;;;;20715;6845;118104;-87
2022/10/20 02:57:23;;;;;;;14.50;13.10;;;15.80;57.70;;;;;;20736;6845;117828;-87
2022/10/20 02:59:49;;;;;;;14.73;13.25;;;15.40;58.50;;;;;;20727;6845;117404;-87
2022/10/20 03:02:15;;;;;;;13.57;12.47;;;15.20;59.30;;;;;;20736;6845;119589;-87
2022/10/20 03:04:41;;;;;;;13.60;12.50;;;14.90;59.70;;;;;;20730;6845;117562;-87
2022/10/20 03:07:06;;;;;;;17.07;15.43;;;14.70;60.00;;;;;;20488;6845;307750;-87
2022/10/20 03:09:32;;;;;;;17.85;16.35;;;15.20;59.50;;;;;;20516;6845;277841;-87
2022/10/20 03:11:58;;;;;;;15.63;14.10;;;15.20;59.70;;;;;;20721;6845;117543;-87
2022/10/20 03:14:24;;;;;;;15.60;14.23;;;15.10;59.40;;;;;;20723;6845;121558;-87
2022/10/20 03:16:50;;;;;;;17.48;16.00;;;14.90;59.90;;;;;;20513;6845;336917;-87
2022/10/20 03:19:16;;;;;;;14.77;13.47;;;15.00;60.00;;;;;;20724;6845;116762;-87
2022/10/20 03:21:42;;;;;;;14.52;13.05;;;14.90;59.90;;;;;;20738;6845;118628;-90
2022/10/20 03:24:07;;;;;;;12.60;11.50;;;14.70;60.20;;;;;;20727;6845;117213;-88
2022/10/20 03:26:33;;;;;;;14.00;12.60;;;14.60;60.70;;;;;;20724;6845;123404;-88
2022/10/20 03:29:01;;;;;;;13.85;12.65;;;14.40;61.00;;;;;;20699;6845;117970;-88
2022/10/20 03:31:27;;;;;;;14.13;12.63;;;14.30;61.30;;;;;;20728;6845;117866;-88
2022/10/20 03:33:54;;;;;;;14.10;12.70;;;14.20;61.50;;;;;;20734;6845;117334;-88
2022/10/20 03:36:19;;;;;;;17.37;15.68;;;14.20;61.80;;;;;;20512;6845;305360;-88
2022/10/20 03:38:46;;;;;;;14.15;12.85;;;14.50;61.70;;;;;;20722;6845;116499;-87
2022/10/20 03:41:13;;;;;;;13.90;12.73;;;14.50;61.20;;;;;;20710;6845;118019;-88
2022/10/20 03:43:39;;;;;;;17.60;15.93;;;14.40;61.40;;;;;;20526;6845;315169;-87
2022/10/20 03:46:05;;;;;;;16.80;14.90;;;14.70;61.10;;;;;;20731;6845;117840;-87
2022/10/20 03:48:31;;;;;;;16.57;15.17;;;14.70;60.70;;;;;;20457;6866;307067;-87
2022/10/20 03:50:57;;;;;;;14.10;12.80;;;14.90;61.00;;;;;;20725;6845;119011;-86
2022/10/20 03:53:22;;;;;;;15.83;14.63;;;14.90;60.90;;;;;;20531;6845;305769;-86
2022/10/20 03:55:48;;;;;;;15.20;13.75;;;15.10;61.20;;;;;;20790;6845;116487;-87
2022/10/20 03:58:13;;;;;;;15.17;13.70;;;15.10;61.10;;;;;;20827;6845;117553;-87
2022/10/20 04:00:39;;;;;;;17.33;15.73;;;14.90;61.40;;;;;;20551;6845;279885;-88
2022/10/20 04:03:04;;;;;;;17.02;15.63;;;15.10;61.50;;;;;;20526;6843;281823;-89
2022/10/20 04:05:30;;;;;;;16.20;14.80;;;15.50;60.90;;;;;;20536;6844;337008;-87
2022/10/20 04:07:56;;;;;;;14.30;12.90;;;15.80;60.00;;;;;;20763;6845;67721;-87
2022/10/20 04:10:21;;;;;;;14.20;12.82;;;15.70;59.90;;;;;;20725;6845;116393;-88
2022/10/20 04:12:47;;;;;;;16.47;15.07;;;15.40;60.40;;;;;;20518;6845;277896;-87
2022/10/20 04:15:12;;;;;;;14.63;13.33;;;15.50;60.30;;;;;;20700;6845;120633;-87
2022/10/20 04:17:38;;;;;;;13.93;12.63;;;15.50;60.20;;;;;;20728;6845;118111;-88
2022/10/20 04:20:06;;;;;;;13.20;11.87;;;15.10;61.00;;;;;;20720;6845;116821;-89
2022/10/20 04:22:31;;;;;;;15.77;14.40;;;15.10;60.90;;;;;;20499;6845;277374;-88
2022/10/20 04:24:57;;;;;;;13.77;12.57;;;15.30;61.10;;;;;;20733;6845;118575;-88
2022/10/20 04:27:23;;;;;;;14.13;11.73;;;15.30;60.50;;;;;;20245;6845;331985;-88
2022/10/20 04:29:49;;;;;;;10.87;9.73;;;15.50;60.10;;;;;;20725;6845;121718;-90
2022/10/20 04:32:14;;;;;;;16.17;14.60;;;15.40;60.00;;;;;;20515;6845;296479;-90
2022/10/20 04:34:40;;;;;;;16.40;14.83;;;15.50;59.60;;;;;;20518;6845;307644;-90
2022/10/20 04:37:07;;;;;;;17.03;15.63;;;15.80;59.00;;;;;;20494;6845;277685;-93
2022/10/20 04:39:33;;;;;;;15.87;14.53;;;16.00;58.60;;;;;;20514;6845;336648;-91
2022/10/20 04:41:58;;;;;;;14.27;12.97;;;16.10;58.00;;;;;;20724;6845;117914;-90
2022/10/20 04:44:24;;;;;;;15.18;13.95;;;15.90;58.30;;;;;;20517;6845;311939;-91
2022/10/20 04:46:51;;;;;;;13.50;12.30;;;15.90;58.30;;;;;;20720;6845;117548;-91
2022/10/20 04:49:16;;;;;;;16.77;15.27;;;15.70;58.40;;;;;;20486;6845;337154;-92
2022/10/20 04:51:42;;;;;;;14.90;13.50;;;15.80;58.60;;;;;;20729;6845;117639;-92
2022/10/20 04:54:11;;;;;;;16.37;14.77;;;15.60;58.50;;;;;;20516;6845;339644;-91
2022/10/20 04:56:36;;;;;;;13.90;12.70;;;15.70;58.50;;;;;;20705;6845;118375;-90
2022/10/20 04:59:02;;;;;;;12.63;11.57;;;15.60;58.70;;;;;;20692;6845;118479;-91
2022/10/20 05:01:28;;;;;;;12.70;11.60;;;15.10;59.90;;;;;;20616;6845;68665;-90
2022/10/20 05:03:56;;;;;;;13.77;12.47;;;15.10;59.90;;;;;;20731;6845;117341;-90
2022/10/20 05:06:24;;;;;;;13.87;12.57;;;14.90;60.20;;;;;;20732;6845;117553;-91
2022/10/20 05:08:53;;;;;;;17.15;15.55;;;14.70;60.50;;;;;;20528;6845;306416;-90
2022/10/20 05:11:23;;;;;;;17.73;15.98;;;15.00;60.60;;;;;;20499;6845;280627;-93
2022/10/20 05:13:50;;;;;;;14.27;12.97;;;15.30;60.20;;;;;;20719;6845;118638;-89
2022/10/20 05:16:18;;;;;;;14.33;12.93;;;15.30;59.70;;;;;;20732;6843;122256;-89
2022/10/20 05:18:44;;;;;;;14.27;12.87;;;15.10;60.00;;;;;;20729;6845;117689;-90
2022/10/20 05:21:14;;;;;;;15.68;14.25;;;14.80;60.30;;;;;;20728;6845;118037;-90
2022/10/20 05:23:41;;;;;;;14.70;13.30;;;14.70;60.80;;;;;;20760;6845;117211;-89
2022/10/20 05:26:11;;;;;;;14.47;13.07;;;14.50;61.20;;;;;;20775;6845;118100;-89
2022/10/20 05:28:37;;;;;;;17.17;15.60;;;14.40;61.40;;;;;;20587;6845;277607;-89
2022/10/20 05:31:02;;;;;;;17.43;16.03;;;14.70;61.70;;;;;;20526;6845;307565;-90
2022/10/20 05:33:29;;;;;;;16.77;15.17;;;15.20;60.80;;;;;;20657;6865;118688;-90
2022/10/20 05:35:56;;;;;;;147.33;88.80;;;15.10;60.70;;;;;;20729;6845;117758;-90
2022/10/20 05:38:21;;;;;;;30.17;23.73;;;15.00;61.00;;;;;;20720;6845;118280;-92
2022/10/20 05:40:47;;;;;;;14.37;13.00;;;14.80;61.30;;;;;;20723;6845;117914;-89
2022/10/20 05:43:12;;;;;;;17.93;16.33;;;14.60;61.50;;;;;;20490;6845;277941;-89
2022/10/20 05:45:38;;;;;;;16.87;15.17;;;14.80;61.50;;;;;;20716;6845;117877;-88
2022/10/20 05:48:05;;;;;;;15.43;13.93;;;14.90;61.20;;;;;;20723;6845;117927;-89
2022/10/20 05:50:31;;;;;;;16.60;14.67;;;14.60;62.10;;;;;;20707;6845;117407;-85
2022/10/20 05:52:58;;;;;;;16.73;15.13;;;14.60;61.50;;;;;;20723;6845;118258;-93
2022/10/20 05:55:24;;;;;;;19.10;17.20;;;14.60;62.20;;;;;;20500;6845;307122;-90
2022/10/20 05:57:50;;;;;;;18.50;16.70;;;14.70;61.90;;;;;;20512;6845;308107;-91
2022/10/20 06:00:17;;;;;;;16.25;14.65;;;15.10;61.10;;;;;;20732;6845;117985;-91
2022/10/20 06:02:41;;;;;;;15.70;14.37;;;15.00;60.70;;;;;;20731;6845;119495;-91
2022/10/20 06:05:10;;;;;;;15.23;13.85;;;14.90;61.10;;;;;;20732;6845;123836;-93
2022/10/20 06:07:36;;;;;;;16.07;14.10;;;14.70;61.50;;;;;;20737;6845;122423;-91
2022/10/20 06:10:03;;;;;;;15.93;14.63;;;14.50;61.80;;;;;;20524;6845;323344;-90
2022/10/20 06:12:28;;;;;;;15.47;13.97;;;14.70;62.00;;;;;;20743;6845;117448;-92
2022/10/20 06:14:55;;;;;;;13.50;12.30;;;14.80;62.00;;;;;;20729;6845;118017;-93
2022/10/20 06:17:21;;;;;;;14.57;13.27;;;15.00;61.40;;;;;;20499;6845;306811;-91
2022/10/20 06:19:48;;;;;;;13.40;12.30;;;14.90;61.30;;;;;;20728;6845;117561;-92
2022/10/20 06:22:15;;;;;;;13.30;12.00;;;15.00;61.20;;;;;;20731;6845;117906;-93
2022/10/20 06:24:42;;;;;;;15.30;14.00;;;14.90;61.30;;;;;;20522;6845;283681;-91
2022/10/20 06:27:09;;;;;;;13.00;11.83;;;15.10;61.10;;;;;;20717;6843;118734;-92
2022/10/20 06:29:36;;;;;;;12.23;11.13;;;15.10;60.90;;;;;;20733;6845;119101;-91
2022/10/20 06:32:01;;;;;;;13.10;11.90;;;15.00;61.20;;;;;;20710;6845;122186;-91
2022/10/20 06:34:28;;;;;;;16.15;14.55;;;14.80;61.50;;;;;;20512;6845;277725;-91
2022/10/20 06:36:54;;;;;;;14.93;13.73;;;15.10;61.20;;;;;;20514;6845;340967;-91
2022/10/20 06:39:19;;;;;;;14.57;13.23;;;15.50;60.30;;;;;;20494;6845;337256;-92
2022/10/20 06:41:45;;;;;;;13.20;12.10;;;15.80;59.70;;;;;;20724;6845;118749;-91
2022/10/20 06:44:11;;;;;;;13.63;12.33;;;15.70;59.60;;;;;;20733;6845;118150;-92
2022/10/20 06:46:37;;;;;;;16.13;14.73;;;15.50;60.00;;;;;;20510;6845;330945;-91
2022/10/20 06:49:03;;;;;;;15.67;14.43;;;15.60;59.50;;;;;;20492;6845;303052;-90
2022/10/20 06:51:30;;;;;;;15.70;14.10;;;15.80;59.40;;;;;;20719;6845;117593;-87
2022/10/20 06:53:58;;;;;;;15.50;14.20;;;15.80;58.80;;;;;;20518;6845;278271;-95
2022/10/20 06:56:23;;;;;;;14.23;12.93;;;15.90;58.50;;;;;;20731;6845;117429;-90
2022/10/20 06:58:49;;;;;;;16.27;14.70;;;15.80;58.70;;;;;;20521;6845;306360;-90
2022/10/20 07:01:24;;;;;;;18.75;17.15;;;15.90;59.50;;;;;;20548;6845;312078;-91
2022/10/20 07:03:52;;;;;;;14.50;13.20;;;16.10;57.60;;;;;;20793;6845;116618;-88
2022/10/20 07:06:16;;;;;;;12.70;11.70;;;15.90;58.00;;;;;;20746;6866;71454;-91
2022/10/20 07:08:43;;;;;;;16.40;15.00;;;15.60;58.60;;;;;;20530;6866;281085;-94
2022/10/20 07:11:12;;;;;;;14.47;13.30;;;15.70;59.10;;;;;;20558;6845;279036;-90
2022/10/20 07:13:38;;;;;;;12.60;8.03;;;16.00;58.70;;;;;;20727;6845;117688;-90
2022/10/20 07:16:04;;;;;;;12.83;7.07;;;15.90;58.60;;;;;;20739;6845;118436;-91
2022/10/20 07:18:29;;;;;;;10.20;9.23;;;15.70;58.90;;;;;;20728;6845;120284;-90
2022/10/20 07:20:55;;;;;;;10.10;9.40;;;15.60;59.30;;;;;;20741;6845;122122;-90
2022/10/20 07:23:20;;;;;;;11.35;10.15;;;15.40;59.60;;;;;;20485;6845;282522;-91
2022/10/20 07:25:47;;;;;;;9.67;8.33;;;15.80;59.60;;;;;;20727;6845;117695;-91
2022/10/20 07:28:14;;;;;;;10.10;8.10;;;15.80;59.60;;;;;;20520;6845;311968;-90
2022/10/20 07:30:41;;;;;;;13.33;12.13;;;16.00;58.30;;;;;;20722;6845;117306;-90
2022/10/20 07:33:06;;;;;;;17.23;15.70;;;16.10;58.30;;;;;;20500;6845;278137;-90
2022/10/20 07:35:32;;;;;;;9.50;8.50;;;16.40;57.80;;;;;;20719;6845;120160;-91
2022/10/20 07:37:57;;;;;;;21.77;19.67;;;16.50;57.80;;;;;;20518;6843;301879;-90
2022/10/20 07:40:24;;;;;;;16.80;15.30;;;17.00;56.50;;;;;;20527;6844;308403;-92
2022/10/20 07:42:49;;;;;;;10.37;9.47;;;17.00;56.50;;;;;;20735;6845;118624;-91
2022/10/20 07:45:16;;;;;;;9.73;9.00;;;17.00;56.50;;;;;;20715;6845;117847;-89
2022/10/20 07:47:42;;;;;;;10.30;9.57;;;17.20;55.90;;;;;;20525;6845;287445;-88
2022/10/20 07:50:08;;;;;;;10.70;10.00;;;17.20;55.90;;;;;;20524;6845;278495;-89
2022/10/20 07:52:34;;;;;;;10.37;9.57;;;17.70;54.70;;;;;;20523;6845;277382;-90
2022/10/20 07:55:00;;;;;;;9.90;9.20;;;18.00;54.00;;;;;;20496;6845;277681;-88
2022/10/20 07:57:27;;;;;;;16.90;15.53;;;18.40;53.40;;;;;;20535;6845;277858;-90
2022/10/20 07:59:52;;;;;;;11.40;10.57;;;18.70;53.40;;;;;;20731;6845;119144;-91
2022/10/20 08:02:19;;;;;;;10.00;9.30;;;18.70;53.60;;;;;;20526;6845;279426;-91
2022/10/20 08:04:44;;;;;;;9.27;8.60;;;18.80;52.40;;;;;;20720;6845;121360;-91
2022/10/20 08:07:13;;;;;;;10.07;9.37;;;18.70;53.40;;;;;;20493;6845;307696;-90
2022/10/20 08:09:40;;;;;;;9.20;8.50;;;18.70;52.60;;;;;;20724;6845;118554;-90
2022/10/20 08:12:05;;;;;;;8.20;7.70;;;18.70;53.10;;;;;;20728;6845;117328;-88
2022/10/20 08:14:32;;;;;;;10.80;9.90;;;18.50;53.60;;;;;;20729;6845;117168;-89
2022/10/20 08:16:56;;;;;;;13.57;12.37;;;18.40;54.20;;;;;;20519;6845;278591;-90
2022/10/20 08:19:22;;;;;;;13.20;12.20;;;18.60;54.30;;;;;;20498;6845;311457;-95
2022/10/20 08:21:48;;;;;;;8.87;8.23;;;19.00;53.70;;;;;;20713;6845;117489;-91
2022/10/20 08:24:15;;;;;;;9.37;8.33;;;19.00;53.60;;;;;;20516;6845;325152;-90
2022/10/20 08:26:41;;;;;;;8.45;7.85;;;19.20;53.00;;;;;;20514;6845;337113;-90
2022/10/20 08:29:07;;;;;;;8.40;7.80;;;19.60;52.90;;;;;;20704;6845;118095;-92
2022/10/20 08:31:33;;;;;;;7.23;6.73;;;19.50;52.80;;;;;;20725;6845;121976;-92
2022/10/20 08:33:58;;;;;;;7.47;6.77;;;19.40;53.00;;;;;;20722;6845;117118;-92
2022/10/20 08:36:27;;;;;;;8.30;7.70;;;19.20;53.40;;;;;;20494;6845;277220;-89
2022/10/20 08:38:53;;;;;;;8.13;7.63;;;19.40;52.40;;;;;;20509;6845;277140;-92
2022/10/20 08:41:16;;;;;;;8.57;7.87;;;19.80;51.10;;;;;;20682;6845;127449;-90
2022/10/20 08:43:42;;;;;;;8.20;7.70;;;19.80;51.20;;;;;;20494;6845;306785;-90
2022/10/20 08:46:14;;;;;;;7.20;6.70;;;20.00;50.60;;;;;;20735;6845;117374;-93
2022/10/20 08:48:40;;;;;;;7.70;7.03;;;20.00;50.90;;;;;;20513;6845;277795;-91
2022/10/20 08:51:05;;;;;;;7.57;7.10;;;20.10;51.00;;;;;;20489;6843;277324;-93
2022/10/20 08:53:31;;;;;;;8.00;7.40;;;20.30;50.10;;;;;;20522;6845;307656;-90
2022/10/20 08:55:57;;;;;;;9.20;8.50;;;20.50;50.70;;;;;;20715;6845;116967;-92
2022/10/20 08:58:22;;;;;;;7.93;7.43;;;20.40;51.20;;;;;;20517;6845;277488;-91
2022/10/20 09:00:48;;;;;;;7.37;6.87;;;20.40;51.10;;;;;;20673;6845;117335;-90
2022/10/20 09:03:16;;;;;;;6.87;6.47;;;20.30;51.20;;;;;;20448;6842;281413;-93
2022/10/20 09:05:43;;;;;;;6.83;6.33;;;20.30;50.50;;;;;;20516;6842;278475;-91
2022/10/20 09:08:12;;;;;;;6.57;6.17;;;20.50;50.20;;;;;;20520;6842;306265;-90
2022/10/20 09:10:41;;;;;;;7.40;6.90;;;20.90;49.90;;;;;;20522;6843;312048;-91
2022/10/20 09:13:22;;;;;;;6.80;6.40;;;20.80;49.90;;;;;;20695;6843;117368;-92
2022/10/20 09:15:46;;;;;;;8.07;7.37;;;20.70;50.10;;;;;;20662;6843;117219;-88
2022/10/20 09:18:11;;;;;;;8.50;7.90;;;20.40;50.60;;;;;;20528;6843;286460;-89
2022/10/20 09:20:46;;;;;;;7.83;7.33;;;20.40;49.80;;;;;;20725;6843;117370;-91
2022/10/20 09:23:15;;;;;;;8.30;7.70;;;20.40;50.30;;;;;;20497;6843;277729;-89
2022/10/20 09:25:40;;;;;;;7.90;7.27;;;20.50;50.00;;;;;;20517;6843;311280;-89
2022/10/20 09:28:06;;;;;;;6.67;6.27;;;20.70;50.20;;;;;;20736;6843;117625;-89
2022/10/20 09:30:35;;;;;;;6.80;6.40;;;20.70;50.40;;;;;;20495;6843;278125;-91
2022/10/20 09:33:02;;;;;;;7.07;6.43;;;20.90;50.70;;;;;;20722;6843;117750;-90
2022/10/20 09:35:29;;;;;;;6.43;5.93;;;20.90;50.90;;;;;;20456;6843;307208;-92
2022/10/20 09:38:17;;;;;;;7.50;7.00;;;21.10;50.60;;;;;;20728;6843;118077;-89
2022/10/20 09:40:43;;;;;;;6.33;5.73;;;21.10;50.70;;;;;;20736;6843;123514;-87
2022/10/20 09:43:08;;;;;;;9.20;8.40;;;21.00;51.00;;;;;;20526;6843;121992;-92
2022/10/20 09:45:35;;;;;;;8.63;7.82;;;20.80;51.30;;;;;;20522;6843;307939;-91
2022/10/20 09:48:04;;;;;;;6.43;5.83;;;21.00;51.10;;;;;;20733;6843;117169;-90
2022/10/20 09:50:29;;;;;;;6.00;5.53;;;21.00;50.90;;;;;;20702;6843;116621;-88
2022/10/20 09:52:55;;;;;;;6.37;5.77;;;20.80;51.00;;;;;;20724;6843;116539;-88
2022/10/20 09:55:27;;;;;;;7.37;6.40;;;20.70;51.20;;;;;;20501;6843;281282;-89
2022/10/20 09:57:53;;;;;;;6.57;6.00;;;20.80;50.10;;;;;;20515;6843;312121;-87
2022/10/20 10:00:22;;;;;;;6.13;5.63;;;21.10;50.00;;;;;;20713;6843;118063;-88
2022/10/20 10:02:49;;;;;;;6.85;6.20;;;21.10;50.30;;;;;;20490;6841;339418;-87
2022/10/20 10:05:18;;;;;;;7.93;6.10;;;21.10;50.60;;;;;;20677;6842;145091;-88
2022/10/20 10:07:44;;;;;;;6.00;5.43;;;21.10;50.70;;;;;;20603;6842;310016;-90
2022/10/20 10:10:16;;;;;;;5.50;5.20;;;21.10;50.60;;;;;;20815;6842;116694;-89
2022/10/20 10:12:42;;;;;;;5.23;4.77;;;21.10;51.00;;;;;;20800;6842;117528;-88
2022/10/20 10:15:11;;;;;;;6.70;6.25;;;20.90;51.40;;;;;;20732;6842;120160;-88
2022/10/20 10:17:39;;;;;;;6.85;6.32;;;20.70;51.80;;;;;;20401;6842;310280;-87
2022/10/20 10:20:09;;;;;;;6.40;6.00;;;21.00;51.40;;;;;;20758;6842;117068;-90
2022/10/20 10:22:34;;;;;;;7.57;5.97;;;21.00;51.40;;;;;;20494;6843;307967;-89
2022/10/20 10:25:01;;;;;;;7.03;6.53;;;21.20;50.90;;;;;;20524;6843;279668;-90
2022/10/20 10:27:34;;;;;;;6.73;6.10;;;21.50;49.70;;;;;;20756;6843;117762;-91
2022/10/20 10:30:26;;;;;;;6.65;6.15;;;21.60;50.00;;;;;;20532;6843;343115;-88
2022/10/20 10:32:50;;;;;;;5.53;5.23;;;21.80;50.10;;;;;;20738;6843;118402;-88
2022/10/20 10:35:36;;;;;;;5.73;5.23;;;21.70;50.00;;;;;;20718;6843;119907;-89
2022/10/20 10:38:01;;;;;;;5.83;5.43;;;21.70;50.00;;;;;;20515;6843;303570;-92
2022/10/20 10:40:40;;;;;;;5.87;5.43;;;21.80;49.10;;;;;;20522;6843;306778;-87
2022/10/20 10:43:15;;;;;;;5.57;5.27;;;22.00;49.20;;;;;;20683;6848;117446;-91
2022/10/20 10:45:45;;;;;;;6.17;5.77;;;22.00;49.30;;;;;;20658;6863;117701;-88
2022/10/20 10:48:36;;;;;;;6.20;5.70;;;21.70;49.70;;;;;;20502;6843;310869;-90
2022/10/20 10:51:09;;;;;;;5.53;5.23;;;21.80;49.20;;;;;;20720;6843;117627;-89
2022/10/20 10:53:55;;;;;;;6.97;6.27;;;21.60;49.30;;;;;;20495;6848;278699;-88
2022/10/20 10:56:43;;;;;;;5.83;5.43;;;21.60;48.90;;;;;;20510;6843;305678;-93
2022/10/20 10:59:13;;;;;;;6.07;5.67;;;21.70;49.40;;;;;;20702;6843;117216;-87
2022/10/20 11:02:08;;;;;;;5.97;5.47;;;21.60;49.30;;;;;;20703;6843;118240;-87
2022/10/20 11:04:57;;;;;;;6.37;5.97;;;21.50;50.80;;;;;;20495;6843;278475;-87
2022/10/20 11:07:56;;;;;;;7.40;6.70;;;21.50;50.50;;;;;;20499;6843;281867;-89
2022/10/20 11:10:35;;;;;;;6.83;6.23;;;21.80;50.00;;;;;;20503;6843;305203;-93
2022/10/20 11:13:04;;;;;;;6.53;6.07;;;22.00;49.80;;;;;;20502;6841;307161;-88
2022/10/20 11:15:52;;;;;;;7.37;6.30;;;22.20;49.60;;;;;;20492;6842;310940;-90
2022/10/20 11:18:54;;;;;;;6.93;6.43;;;22.30;48.80;;;;;;20526;6842;311044;-89
2022/10/20 11:21:30;;;;;;;6.40;6.00;;;22.40;48.10;;;;;;20726;6842;122635;-88
2022/10/20 11:24:00;;;;;;;6.23;5.70;;;21.80;49.70;;;;;;20315;6842;117244;-87
2022/10/20 11:26:33;;;;;;;6.60;6.00;;;21.80;49.70;;;;;;20722;6842;117107;-88
2022/10/20 11:28:58;;;;;;;7.10;6.60;;;21.60;50.30;;;;;;20726;6842;117184;-88
2022/10/20 11:31:33;;;;;;;6.82;6.40;;;21.40;50.80;;;;;;20523;6842;279130;-87
2022/10/20 11:34:02;;;;;;;6.43;6.03;;;22.00;50.00;;;;;;20499;6848;278268;-88
2022/10/20 11:36:28;;;;;;;6.90;6.30;;;22.00;50.00;;;;;;20512;6843;277864;-88
2022/10/20 11:38:54;;;;;;;6.60;6.00;;;22.30;49.10;;;;;;20510;6843;282514;-88
2022/10/20 11:41:25;;;;;;;5.30;4.90;;;22.50;49.30;;;;;;20700;6843;117176;-88
2022/10/20 11:43:56;;;;;;;5.43;4.93;;;22.50;49.10;;;;;;20727;6843;119665;-87
2022/10/20 11:46:26;;;;;;;5.77;5.37;;;22.20;49.30;;;;;;20525;6843;327050;-88
2022/10/20 11:48:51;;;;;;;5.68;5.07;;;22.20;48.30;;;;;;20497;6843;326656;-88
2022/10/20 11:51:29;;;;;;;5.30;4.90;;;22.40;48.40;;;;;;20502;6843;312009;-90
2022/10/20 11:54:13;;;;;;;5.33;4.83;;;22.40;48.50;;;;;;20723;6843;116559;-87
2022/10/20 11:57:18;;;;;;;4.97;4.53;;;22.10;49.10;;;;;;20388;6843;118140;-90
2022/10/20 12:00:07;;;;;;;6.95;5.50;;;22.10;49.10;;;;;;20520;6843;342260;-89
2022/10/20 12:03:10;;;;;;;5.40;5.03;;;22.10;49.10;;;;;;20735;6843;117520;-90
2022/10/20 12:05:51;;;;;;;5.57;5.20;;;21.90;49.20;;;;;;20697;6843;117563;-88
2022/10/20 12:08:46;;;;;;;6.80;6.07;;;21.50;49.80;;;;;;20731;6843;117386;-89
2022/10/20 12:11:28;;;;;;;6.05;5.45;;;21.20;50.30;;;;;;20515;6843;278977;-89
2022/10/20 12:14:18;;;;;;;6.00;5.50;;;21.50;51.00;;;;;;20509;6843;298405;-88
2022/10/20 12:16:53;;;;;;;7.20;5.37;;;21.50;50.70;;;;;;20720;6843;117258;-88
2022/10/20 12:19:35;;;;;;;6.47;6.10;;;21.40;50.80;;;;;;20497;6843;282335;-88
2022/10/20 12:22:14;;;;;;;6.73;6.23;;;21.50;50.80;;;;;;20522;6843;311069;-88
2022/10/20 12:24:53;;;;;;;7.90;7.10;;;21.80;51.20;;;;;;20518;6841;334234;-90
2022/10/20 12:27:22;;;;;;;6.93;6.43;;;22.10;50.20;;;;;;20673;6842;118340;-88
2022/10/20 12:29:52;;;;;;;6.47;6.07;;;21.90;50.20;;;;;;20712;6848;117223;-87
2022/10/20 12:32:23;;;;;;;6.50;6.00;;;21.60;50.60;;;;;;20737;6842;117501;-87
2022/10/20 12:34:46;;;;;;;7.67;6.97;;;21.30;50.80;;;;;;20733;6842;117173;-88